Kezdőlap
METAR-TAF:

METAR-TAF

Repülőterek :

Szaratov, Oroszország

földrajzi szélesség: 51-34-12N, földrajzi hosszúság: 046-04-12E, magasság: 166 m

Jelenlegi meteorológiai megfigyelések

A jelentés 51 perccel ezelõtt készült, 21:00 UTC
Északi szél 4 kt
Hőmérséklet -4°C
Páratartalom 49%
Légköri nyomás 1042 hPa
Látótávolság 10 km, vagy több
felhőtlen 1500 m magasságban, és nincs gomolyfelhõ

METAR: UWSS 162100Z 35002MPS CAVOK M04/M13 Q1042 R30/010095 NOSIG RMK QFE767

Idő: 00:51 (21:51 UTC)

Előrejelzés

A jelentés 1 órával és 51 perccel ezelõtt készült, 20:00 UTC
Az előrejelzés 16-én 21 óra UTC és 17-én 06 óra UTC között érvényes
Északi szél 6 kt
Látótávolság 10 km, vagy több
Szórványos felhőzet 2000 lábon
16-én 21 óra UTC és 17-én 06 óra UTC között ideiglenes
Látótávolság: 3100 m
Szórványos felhőzet 1100 lábon
Párásság

TAF: UWSS 162000Z 1621/1706 36003MPS 9999 SCT020 TEMPO 1621/1706 3100 BR SCT011

Meteorológiai megfigyelések és előrejelzések több, mint 4000 repülőtéren (METAR és TAF jelentéseket).

A térképen piros és sárga pontok jelzik az elérhető meteorológiai állomásokat.

Mozgassa az egeret a pont fölött, hogy megjelenjen az állomás neve.

Azután kattintson az időjárási megfigyelések és előrejelzések megtekintéséhez.

A térkép megváltoztatása: kattintson a fekete keresztel jelölt zöld gombra ráközelítéshez, a vonallal jelölt zöld gombra távolításhoz, vagy a zöld nyilakra a szomszédos térképek eléréséhez.


METAR-TAF: